Dixon, NE (68732)

02:00 CDT le 04 juillet 2015 (GMT -0500)
Udder Weather | | Change Station
CLOSE
Current Station
Stations météorologiques personnelles
Location: Dixon, NE
Altitude: 1503 ft
Stations météo à proximité

Alt. 1503 ft 42.41 °N, 96.97 °W | Updated 30 seconds ago

Ciel dégagé
Ciel dégagé
61.7 ° F
Paraît 61.7 ° F
N
0.0
Vent Variable Vent de SE
Gusts 0.0 mph

Aujourd'hui
Haut(e) -- | Bas -- ° F
--% Risque de précip.
Hier
Haut(e) -- | Bas -- ° F
Precip. -- pouce
5:56 AM 9:08 PM
Lune gibbeuse décroissante, 94% visible
Pression 29.99 pouce
Visibilité 7.0 Miles terrestres
Nuages Ciel dégagé
Point de rosée 61 ° F
Humidité 98%
Précipitations 0.00 pouce
Profondeur de la couche neigeuse Non disponible.
UV 0.0 sur 12
Pollen 3.40 sur 12
Qualité de l'air Non disponible.
Flu Activity Non disponible.
METAR KLCG 040635Z AUTO 00000KT 7SM CLR 17/16 A2999 RMK AO2 T01670158

More Conditions Fewer Conditions

Pression 29.99 pouce
Visibilité 7.0 Miles terrestres
Nuages Ciel dégagé
Point de rosée 61 ° F
Humidité 98%
Précipitations 0.00 pouce
Profondeur de la couche neigeuse Non disponible.
UV 0.0 sur 12
Pollen 3.40 sur 12
Qualité de l'air Non disponible.
Flu Activity Non disponible.
METAR KLCG 040635Z AUTO 00000KT 7SM CLR 17/16 A2999 RMK AO2 T01670158

More Conditions Fewer Conditions

10-Day Weather Forecast

×

Almanac

Astronomie

Jul. 04, 2015 Lever Coucher
Temps réel
Crépuscule civil
Crépuscule nautique
Crépuscule astronomique
Lune
Durée de lumière visible
Longueur du jour
Tomorrow will be .
, % of the Moon is Illuminated

Extrêmes aujourd'hui

State Highs State Lows

Community

WunderPhotos

Upload Photos

1,834,926 Photos téléchargées !

WunderBlogs® & News

Nearby

Qualité de l'air

  Qualité de l'air Indice de la qualité de l'air Polluant
Not available.

Épaisseur de neige

Station Depth Altitude

Activité sismique

Ville Distance Mag. Time & Date
Minimum magnitude displayed is 2.5.

Températures des eaux côtières

Lieu Température

Stations

Stations météo à proximité

Emplacement de la station Température Refroidissement éolien Point de rosée Humidité Vent Precip. Alt. Mise à jour Type